sensor_id;sensor_type;location;lat;lon;timestamp;temperature;humidity
1453;DHT22;720;47.738;7.998;2023-03-01T00:01:17;0.20;93.10
1453;DHT22;720;47.738;7.998;2023-03-01T00:03:43;0.20;93.50
1453;DHT22;720;47.738;7.998;2023-03-01T00:06:09;0.00;93.60
1453;DHT22;720;47.738;7.998;2023-03-01T00:08:35;0.00;93.60
1453;DHT22;720;47.738;7.998;2023-03-01T00:13:38;0.00;94.10
1453;DHT22;720;47.738;7.998;2023-03-01T00:16:05;0.10;93.80
1453;DHT22;720;47.738;7.998;2023-03-01T00:18:31;-0.20;94.00
1453;DHT22;720;47.738;7.998;2023-03-01T00:20:57;-0.10;94.40
1453;DHT22;720;47.738;7.998;2023-03-01T00:23:24;0.00;94.30
1453;DHT22;720;47.738;7.998;2023-03-01T00:25:50;0.00;94.40
1453;DHT22;720;47.738;7.998;2023-03-01T00:28:16;0.20;94.20
1453;DHT22;720;47.738;7.998;2023-03-01T00:30:42;0.20;94.10
1453;DHT22;720;47.738;7.998;2023-03-01T00:33:08;0.30;94.10
1453;DHT22;720;47.738;7.998;2023-03-01T00:35:34;0.20;93.60
1453;DHT22;720;47.738;7.998;2023-03-01T00:37:59;0.20;93.60
1453;DHT22;720;47.738;7.998;2023-03-01T00:40:26;0.20;93.70
1453;DHT22;720;47.738;7.998;2023-03-01T00:42:52;0.10;93.80
1453;DHT22;720;47.738;7.998;2023-03-01T00:45:18;0.00;94.10
1453;DHT22;720;47.738;7.998;2023-03-01T00:47:43;-0.10;94.00
1453;DHT22;720;47.738;7.998;2023-03-01T00:50:10;-0.10;94.20
1453;DHT22;720;47.738;7.998;2023-03-01T00:52:36;-0.10;94.50
1453;DHT22;720;47.738;7.998;2023-03-01T00:55:02;-0.10;94.30
1453;DHT22;720;47.738;7.998;2023-03-01T00:57:28;-0.20;94.20
1453;DHT22;720;47.738;7.998;2023-03-01T00:59:54;-0.20;94.30
1453;DHT22;720;47.738;7.998;2023-03-01T01:02:20;-0.20;94.30
1453;DHT22;720;47.738;7.998;2023-03-01T01:04:46;-0.20;94.30
1453;DHT22;720;47.738;7.998;2023-03-01T01:07:12;-0.20;94.40
1453;DHT22;720;47.738;7.998;2023-03-01T01:09:37;-0.30;94.60
1453;DHT22;720;47.738;7.998;2023-03-01T01:12:03;-0.30;94.60
1453;DHT22;720;47.738;7.998;2023-03-01T01:14:29;-0.30;94.50
1453;DHT22;720;47.738;7.998;2023-03-01T01:16:56;-0.30;94.50
1453;DHT22;720;47.738;7.998;2023-03-01T01:19:21;-0.40;94.70
1453;DHT22;720;47.738;7.998;2023-03-01T01:21:48;-0.30;94.70
1453;DHT22;720;47.738;7.998;2023-03-01T01:24:15;-0.40;94.70
1453;DHT22;720;47.738;7.998;2023-03-01T01:26:41;-0.40;94.80
1453;DHT22;720;47.738;7.998;2023-03-01T01:29:07;-0.50;94.80
1453;DHT22;720;47.738;7.998;2023-03-01T01:31:34;-0.40;94.80
1453;DHT22;720;47.738;7.998;2023-03-01T01:34:03;-0.40;94.70
1453;DHT22;720;47.738;7.998;2023-03-01T01:36:31;-0.30;94.70
1453;DHT22;720;47.738;7.998;2023-03-01T01:38:57;-0.40;94.60
1453;DHT22;720;47.738;7.998;2023-03-01T01:41:24;-0.40;94.60
1453;DHT22;720;47.738;7.998;2023-03-01T01:44:17;-0.50;94.80
1453;DHT22;720;47.738;7.998;2023-03-01T01:54:39;-0.50;94.80
1453;DHT22;720;47.738;7.998;2023-03-01T01:57:12;-0.50;94.90
1453;DHT22;720;47.738;7.998;2023-03-01T01:59:39;-0.60;95.00
1453;DHT22;720;47.738;7.998;2023-03-01T02:02:05;-0.50;95.30
1453;DHT22;720;47.738;7.998;2023-03-01T02:04:32;-0.50;95.10
1453;DHT22;720;47.738;7.998;2023-03-01T02:07:02;-0.40;95.20
1453;DHT22;720;47.738;7.998;2023-03-01T02:09:30;-0.50;95.00
1453;DHT22;720;47.738;7.998;2023-03-01T02:11:57;-0.40;95.20
1453;DHT22;720;47.738;7.998;2023-03-01T02:14:23;-0.40;95.10
1453;DHT22;720;47.738;7.998;2023-03-01T02:16:49;-0.40;95.30
1453;DHT22;720;47.738;7.998;2023-03-01T02:22:18;-0.40;95.30
1453;DHT22;720;47.738;7.998;2023-03-01T02:25:08;-0.40;95.60
1453;DHT22;720;47.738;7.998;2023-03-01T02:28:32;-0.30;95.20
1453;DHT22;720;47.738;7.998;2023-03-01T02:30:38;-0.10;95.10
1453;DHT22;720;47.738;7.998;2023-03-01T02:33:25;-0.10;94.90
1453;DHT22;720;47.738;7.998;2023-03-01T02:35:53;-0.10;94.80
1453;DHT22;720;47.738;7.998;2023-03-01T02:38:20;-0.30;95.20
1453;DHT22;720;47.738;7.998;2023-03-01T02:40:50;-0.30;95.60
1453;DHT22;720;47.738;7.998;2023-03-01T02:43:16;-0.10;95.70
1453;DHT22;720;47.738;7.998;2023-03-01T02:45:50;-0.30;95.40
1453;DHT22;720;47.738;7.998;2023-03-01T02:48:19;-0.20;95.00
1453;DHT22;720;47.738;7.998;2023-03-01T02:51:03;-0.30;95.20
1453;DHT22;720;47.738;7.998;2023-03-01T02:56:04;-0.20;95.20
1453;DHT22;720;47.738;7.998;2023-03-01T02:58:30;-0.20;95.00
1453;DHT22;720;47.738;7.998;2023-03-01T03:00:56;-0.20;94.90
1453;DHT22;720;47.738;7.998;2023-03-01T03:03:22;-0.10;94.80
1453;DHT22;720;47.738;7.998;2023-03-01T03:05:48;0.00;94.90
1453;DHT22;720;47.738;7.998;2023-03-01T03:08:14;0.00;94.70
1453;DHT22;720;47.738;7.998;2023-03-01T03:10:42;-0.10;94.80
1453;DHT22;720;47.738;7.998;2023-03-01T03:13:12;-0.30;94.70
1453;DHT22;720;47.738;7.998;2023-03-01T03:15:40;-0.10;94.80
1453;DHT22;720;47.738;7.998;2023-03-01T03:18:12;-0.10;94.70
1453;DHT22;720;47.738;7.998;2023-03-01T03:20:40;-0.10;94.90
1453;DHT22;720;47.738;7.998;2023-03-01T03:23:06;0.10;94.70
1453;DHT22;720;47.738;7.998;2023-03-01T03:25:32;0.20;94.80
1453;DHT22;720;47.738;7.998;2023-03-01T03:27:58;0.30;94.60
1453;DHT22;720;47.738;7.998;2023-03-01T03:30:27;0.20;94.50
1453;DHT22;720;47.738;7.998;2023-03-01T03:32:53;0.20;94.60
1453;DHT22;720;47.738;7.998;2023-03-01T03:35:26;0.30;94.20
1453;DHT22;720;47.738;7.998;2023-03-01T03:37:54;0.30;94.10
1453;DHT22;720;47.738;7.998;2023-03-01T03:40:40;0.30;94.20
1453;DHT22;720;47.738;7.998;2023-03-01T03:43:09;0.30;94.50
1453;DHT22;720;47.738;7.998;2023-03-01T03:45:35;0.30;94.40
1453;DHT22;720;47.738;7.998;2023-03-01T03:48:02;0.40;94.60
1453;DHT22;720;47.738;7.998;2023-03-01T03:50:29;0.30;94.50
1453;DHT22;720;47.738;7.998;2023-03-01T03:52:54;0.40;95.00
1453;DHT22;720;47.738;7.998;2023-03-01T03:55:20;0.40;94.80
1453;DHT22;720;47.738;7.998;2023-03-01T03:57:47;0.40;94.90
1453;DHT22;720;47.738;7.998;2023-03-01T04:00:18;0.60;95.00
1453;DHT22;720;47.738;7.998;2023-03-01T04:02:45;0.50;94.30
1453;DHT22;720;47.738;7.998;2023-03-01T04:05:14;0.30;94.80
1453;DHT22;720;47.738;7.998;2023-03-01T04:07:41;0.10;95.00
1453;DHT22;720;47.738;7.998;2023-03-01T04:10:12;0.00;95.20
1453;DHT22;720;47.738;7.998;2023-03-01T04:12:38;0.10;95.20
1453;DHT22;720;47.738;7.998;2023-03-01T04:15:06;0.20;95.00
1453;DHT22;720;47.738;7.998;2023-03-01T04:17:41;0.00;95.20
1453;DHT22;720;47.738;7.998;2023-03-01T04:20:09;-0.20;95.40
1453;DHT22;720;47.738;7.998;2023-03-01T04:22:37;0.00;95.70
1453;DHT22;720;47.738;7.998;2023-03-01T04:25:02;0.00;95.60
1453;DHT22;720;47.738;7.998;2023-03-01T04:27:30;-0.20;96.10
1453;DHT22;720;47.738;7.998;2023-03-01T04:29:55;0.00;96.30
1453;DHT22;720;47.738;7.998;2023-03-01T04:32:21;0.10;96.10
1453;DHT22;720;47.738;7.998;2023-03-01T04:34:47;0.00;96.00
1453;DHT22;720;47.738;7.998;2023-03-01T04:37:12;0.10;95.70
1453;DHT22;720;47.738;7.998;2023-03-01T04:39:38;0.00;95.70
1453;DHT22;720;47.738;7.998;2023-03-01T04:42:11;-0.10;96.20
1453;DHT22;720;47.738;7.998;2023-03-01T04:44:36;0.00;96.40
1453;DHT22;720;47.738;7.998;2023-03-01T04:47:02;0.20;96.30
1453;DHT22;720;47.738;7.998;2023-03-01T04:49:28;0.20;96.10
1453;DHT22;720;47.738;7.998;2023-03-01T04:51:53;0.30;95.60
1453;DHT22;720;47.738;7.998;2023-03-01T04:54:19;0.30;95.70
1453;DHT22;720;47.738;7.998;2023-03-01T04:56:45;0.40;95.80
1453;DHT22;720;47.738;7.998;2023-03-01T04:59:10;0.30;95.80
1453;DHT22;720;47.738;7.998;2023-03-01T05:01:38;0.10;96.00
1453;DHT22;720;47.738;7.998;2023-03-01T05:04:04;0.20;96.20
1453;DHT22;720;47.738;7.998;2023-03-01T05:06:31;0.10;96.30
1453;DHT22;720;47.738;7.998;2023-03-01T05:08:57;-0.20;96.70
1453;DHT22;720;47.738;7.998;2023-03-01T05:11:23;0.00;97.30
1453;DHT22;720;47.738;7.998;2023-03-01T05:13:48;0.20;96.90
1453;DHT22;720;47.738;7.998;2023-03-01T05:16:18;0.40;96.30
1453;DHT22;720;47.738;7.998;2023-03-01T05:18:44;0.50;96.00
1453;DHT22;720;47.738;7.998;2023-03-01T05:21:13;0.60;95.90
1453;DHT22;720;47.738;7.998;2023-03-01T05:23:41;0.50;95.90
1453;DHT22;720;47.738;7.998;2023-03-01T05:26:08;0.50;95.80
1453;DHT22;720;47.738;7.998;2023-03-01T05:28:34;0.60;95.70
1453;DHT22;720;47.738;7.998;2023-03-01T05:31:00;0.70;95.20
1453;DHT22;720;47.738;7.998;2023-03-01T05:33:27;0.60;95.30
1453;DHT22;720;47.738;7.998;2023-03-01T05:35:53;0.60;95.60
1453;DHT22;720;47.738;7.998;2023-03-01T05:38:20;0.50;95.60
1453;DHT22;720;47.738;7.998;2023-03-01T05:40:47;0.40;95.80
1453;DHT22;720;47.738;7.998;2023-03-01T05:43:15;0.50;95.90
1453;DHT22;720;47.738;7.998;2023-03-01T05:45:41;0.30;95.60
1453;DHT22;720;47.738;7.998;2023-03-01T05:48:09;0.30;96.30
1453;DHT22;720;47.738;7.998;2023-03-01T05:50:38;0.30;96.40
1453;DHT22;720;47.738;7.998;2023-03-01T05:53:16;0.50;96.20
1453;DHT22;720;47.738;7.998;2023-03-01T05:55:42;0.40;95.70
1453;DHT22;720;47.738;7.998;2023-03-01T05:58:11;0.20;95.90
1453;DHT22;720;47.738;7.998;2023-03-01T06:00:39;-0.10;96.30
1453;DHT22;720;47.738;7.998;2023-03-01T06:03:05;-0.30;96.90
1453;DHT22;720;47.738;7.998;2023-03-01T06:05:31;-0.20;97.30
1453;DHT22;720;47.738;7.998;2023-03-01T06:08:01;-0.20;97.20
1453;DHT22;720;47.738;7.998;2023-03-01T06:10:27;-0.20;97.00
1453;DHT22;720;47.738;7.998;2023-03-01T06:12:53;0.00;97.10
1453;DHT22;720;47.738;7.998;2023-03-01T06:15:19;-0.10;96.80
1453;DHT22;720;47.738;7.998;2023-03-01T06:17:45;-0.10;96.90
1453;DHT22;720;47.738;7.998;2023-03-01T06:20:15;-0.40;97.30
1453;DHT22;720;47.738;7.998;2023-03-01T06:22:42;-0.40;97.40
1453;DHT22;720;47.738;7.998;2023-03-01T06:25:08;-0.50;97.80
1453;DHT22;720;47.738;7.998;2023-03-01T06:27:34;-0.60;98.00
1453;DHT22;720;47.738;7.998;2023-03-01T06:30:00;-0.40;98.20
1453;DHT22;720;47.738;7.998;2023-03-01T06:32:26;-0.20;97.90
1453;DHT22;720;47.738;7.998;2023-03-01T06:34:52;-0.20;97.40
1453;DHT22;720;47.738;7.998;2023-03-01T06:37:18;-0.40;97.70
1453;DHT22;720;47.738;7.998;2023-03-01T06:39:43;-0.20;97.90
1453;DHT22;720;47.738;7.998;2023-03-01T06:42:09;-0.20;97.60
1453;DHT22;720;47.738;7.998;2023-03-01T06:44:35;-0.30;97.60
1453;DHT22;720;47.738;7.998;2023-03-01T06:47:01;-0.20;97.70
1453;DHT22;720;47.738;7.998;2023-03-01T06:49:27;-0.30;97.50
1453;DHT22;720;47.738;7.998;2023-03-01T06:51:53;-0.60;97.70
1453;DHT22;720;47.738;7.998;2023-03-01T06:54:18;-0.60;98.20
1453;DHT22;720;47.738;7.998;2023-03-01T06:56:48;-0.30;98.40
1453;DHT22;720;47.738;7.998;2023-03-01T06:59:13;0.00;98.00
1453;DHT22;720;47.738;7.998;2023-03-01T07:01:39;0.30;97.60
1453;DHT22;720;47.738;7.998;2023-03-01T07:04:05;0.50;97.20
1453;DHT22;720;47.738;7.998;2023-03-01T07:06:30;0.60;97.00
1453;DHT22;720;47.738;7.998;2023-03-01T07:08:56;0.80;96.80
1453;DHT22;720;47.738;7.998;2023-03-01T07:11:22;0.90;96.00
1453;DHT22;720;47.738;7.998;2023-03-01T07:13:48;1.00;95.30
1453;DHT22;720;47.738;7.998;2023-03-01T07:16:14;0.80;94.90
1453;DHT22;720;47.738;7.998;2023-03-01T07:18:40;0.60;95.20
1453;DHT22;720;47.738;7.998;2023-03-01T07:21:11;0.60;95.80
1453;DHT22;720;47.738;7.998;2023-03-01T07:23:37;0.80;96.00
1453;DHT22;720;47.738;7.998;2023-03-01T07:26:03;0.80;95.40
1453;DHT22;720;47.738;7.998;2023-03-01T07:28:28;0.70;95.20
1453;DHT22;720;47.738;7.998;2023-03-01T07:30:54;0.80;95.60
1453;DHT22;720;47.738;7.998;2023-03-01T07:33:20;0.80;95.50
1453;DHT22;720;47.738;7.998;2023-03-01T07:35:46;0.70;95.20
1453;DHT22;720;47.738;7.998;2023-03-01T07:38:11;0.60;95.50
1453;DHT22;720;47.738;7.998;2023-03-01T07:40:37;0.40;95.90
1453;DHT22;720;47.738;7.998;2023-03-01T07:43:03;0.50;96.10
1453;DHT22;720;47.738;7.998;2023-03-01T07:45:29;0.30;95.90
1453;DHT22;720;47.738;7.998;2023-03-01T07:47:55;0.30;96.60
1453;DHT22;720;47.738;7.998;2023-03-01T07:50:22;0.30;96.40
1453;DHT22;720;47.738;7.998;2023-03-01T07:52:49;0.30;96.70
1453;DHT22;720;47.738;7.998;2023-03-01T07:55:15;0.40;96.50
1453;DHT22;720;47.738;7.998;2023-03-01T07:57:41;0.60;96.00
1453;DHT22;720;47.738;7.998;2023-03-01T08:00:09;0.60;95.50
1453;DHT22;720;47.738;7.998;2023-03-01T08:02:35;0.50;95.40
1453;DHT22;720;47.738;7.998;2023-03-01T08:05:01;0.50;95.80
1453;DHT22;720;47.738;7.998;2023-03-01T08:07:26;0.30;96.00
1453;DHT22;720;47.738;7.998;2023-03-01T08:09:52;0.20;96.20
1453;DHT22;720;47.738;7.998;2023-03-01T08:12:18;0.30;96.60
1453;DHT22;720;47.738;7.998;2023-03-01T08:14:44;0.30;96.50
1453;DHT22;720;47.738;7.998;2023-03-01T08:17:10;0.40;96.50
1453;DHT22;720;47.738;7.998;2023-03-01T08:19:36;0.50;96.20
1453;DHT22;720;47.738;7.998;2023-03-01T08:22:02;0.60;96.00
1453;DHT22;720;47.738;7.998;2023-03-01T08:24:28;0.80;96.10
1453;DHT22;720;47.738;7.998;2023-03-01T08:26:54;1.10;95.40
1453;DHT22;720;47.738;7.998;2023-03-01T08:29:21;1.20;94.60
1453;DHT22;720;47.738;7.998;2023-03-01T08:31:47;0.90;95.30
1453;DHT22;720;47.738;7.998;2023-03-01T08:34:15;0.90;95.10
1453;DHT22;720;47.738;7.998;2023-03-01T08:36:43;0.90;95.80
1453;DHT22;720;47.738;7.998;2023-03-01T08:39:11;1.00;95.20
1453;DHT22;720;47.738;7.998;2023-03-01T08:41:37;0.90;95.00
1453;DHT22;720;47.738;7.998;2023-03-01T08:44:03;0.90;95.20
1453;DHT22;720;47.738;7.998;2023-03-01T08:46:32;0.40;95.30
1453;DHT22;720;47.738;7.998;2023-03-01T08:48:58;0.20;96.30
1453;DHT22;720;47.738;7.998;2023-03-01T08:51:25;-0.10;96.70
1453;DHT22;720;47.738;7.998;2023-03-01T08:53:51;-0.10;97.20
1453;DHT22;720;47.738;7.998;2023-03-01T08:56:18;-0.10;97.40
1453;DHT22;720;47.738;7.998;2023-03-01T08:58:48;-0.10;97.50
1453;DHT22;720;47.738;7.998;2023-03-01T09:01:16;0.20;98.00
1453;DHT22;720;47.738;7.998;2023-03-01T09:03:43;0.40;96.70
1453;DHT22;720;47.738;7.998;2023-03-01T09:06:09;0.20;96.50
1453;DHT22;720;47.738;7.998;2023-03-01T09:08:39;0.20;96.80
1453;DHT22;720;47.738;7.998;2023-03-01T09:11:07;0.20;96.80
1453;DHT22;720;47.738;7.998;2023-03-01T09:13:33;0.10;96.60
1453;DHT22;720;47.738;7.998;2023-03-01T09:16:01;0.20;97.30
1453;DHT22;720;47.738;7.998;2023-03-01T09:18:28;0.70;97.50
1453;DHT22;720;47.738;7.998;2023-03-01T09:21:01;1.00;96.20
1453;DHT22;720;47.738;7.998;2023-03-01T09:23:27;1.10;95.60
1453;DHT22;720;47.738;7.998;2023-03-01T09:25:52;1.30;95.50
1453;DHT22;720;47.738;7.998;2023-03-01T09:28:18;1.60;95.60
1453;DHT22;720;47.738;7.998;2023-03-01T09:30:44;1.90;94.80
1453;DHT22;720;47.738;7.998;2023-03-01T09:33:09;1.90;94.00
1453;DHT22;720;47.738;7.998;2023-03-01T09:35:40;2.00;94.00
1453;DHT22;720;47.738;7.998;2023-03-01T09:38:11;2.00;93.20
1453;DHT22;720;47.738;7.998;2023-03-01T09:40:42;1.80;93.10
1453;DHT22;720;47.738;7.998;2023-03-01T09:44:30;1.40;93.30
1453;DHT22;720;47.738;7.998;2023-03-01T09:46:25;1.20;93.80
1453;DHT22;720;47.738;7.998;2023-03-01T09:48:56;0.90;94.50
1453;DHT22;720;47.738;7.998;2023-03-01T09:51:32;0.70;95.20
1453;DHT22;720;47.738;7.998;2023-03-01T09:53:58;0.80;95.20
1453;DHT22;720;47.738;7.998;2023-03-01T09:56:40;0.70;95.40
1453;DHT22;720;47.738;7.998;2023-03-01T09:59:28;1.00;95.70
1453;DHT22;720;47.738;7.998;2023-03-01T10:07:32;1.50;94.00
1453;DHT22;720;47.738;7.998;2023-03-01T10:10:05;1.40;94.20
1453;DHT22;720;47.738;7.998;2023-03-01T10:12:39;1.60;94.70
1453;DHT22;720;47.738;7.998;2023-03-01T10:15:15;1.90;94.60
1453;DHT22;720;47.738;7.998;2023-03-01T10:17:46;2.20;94.00
1453;DHT22;720;47.738;7.998;2023-03-01T10:20:28;2.50;93.40
1453;DHT22;720;47.738;7.998;2023-03-01T10:22:55;2.60;93.40
1453;DHT22;720;47.738;7.998;2023-03-01T10:25:50;2.70;92.70
1453;DHT22;720;47.738;7.998;2023-03-01T10:28:26;2.70;92.00
1453;DHT22;720;47.738;7.998;2023-03-01T10:30:53;2.50;92.10
1453;DHT22;720;47.738;7.998;2023-03-01T10:33:26;2.50;92.30
1453;DHT22;720;47.738;7.998;2023-03-01T10:35:52;2.50;92.60
1453;DHT22;720;47.738;7.998;2023-03-01T10:38:19;2.40;92.50
1453;DHT22;720;47.738;7.998;2023-03-01T10:40:54;2.20;92.70
1453;DHT22;720;47.738;7.998;2023-03-01T10:43:20;2.50;92.60
1453;DHT22;720;47.738;7.998;2023-03-01T10:45:47;2.60;92.20
1453;DHT22;720;47.738;7.998;2023-03-01T10:50:42;2.70;92.80
1453;DHT22;720;47.738;7.998;2023-03-01T10:58:29;2.50;92.10
1453;DHT22;720;47.738;7.998;2023-03-01T11:01:00;2.50;92.00
1453;DHT22;720;47.738;7.998;2023-03-01T11:03:37;2.10;92.80
1453;DHT22;720;47.738;7.998;2023-03-01T11:06:20;2.30;92.70
1453;DHT22;720;47.738;7.998;2023-03-01T11:08:48;2.50;92.50
1453;DHT22;720;47.738;7.998;2023-03-01T11:11:51;2.90;92.20
1453;DHT22;720;47.738;7.998;2023-03-01T11:14:21;2.90;91.60
1453;DHT22;720;47.738;7.998;2023-03-01T11:16:49;3.10;91.70
1453;DHT22;720;47.738;7.998;2023-03-01T11:19:23;3.40;91.10
1453;DHT22;720;47.738;7.998;2023-03-01T11:22:17;3.50;91.00
1453;DHT22;720;47.738;7.998;2023-03-01T11:24:50;3.50;90.60
1453;DHT22;720;47.738;7.998;2023-03-01T11:27:31;3.00;91.00
1453;DHT22;720;47.738;7.998;2023-03-01T11:32:47;3.00;90.90
1453;DHT22;720;47.738;7.998;2023-03-01T11:35:23;2.80;90.90
1453;DHT22;720;47.738;7.998;2023-03-01T11:38:10;2.80;91.00
1453;DHT22;720;47.738;7.998;2023-03-01T11:40:44;2.90;91.20
1453;DHT22;720;47.738;7.998;2023-03-01T11:43:26;3.00;90.90
1453;DHT22;720;47.738;7.998;2023-03-01T11:46:48;3.00;90.90
1453;DHT22;720;47.738;7.998;2023-03-01T11:49:11;3.10;91.10
1453;DHT22;720;47.738;7.998;2023-03-01T12:06:04;4.00;88.80
1453;DHT22;720;47.738;7.998;2023-03-01T12:08:45;4.00;88.90
1453;DHT22;720;47.738;7.998;2023-03-01T12:19:49;4.40;87.90
1453;DHT22;720;47.738;7.998;2023-03-01T12:22:47;4.30;87.00
1453;DHT22;720;47.738;7.998;2023-03-01T12:25:38;4.30;87.70
1453;DHT22;720;47.738;7.998;2023-03-01T12:48:24;4.30;87.90
1453;DHT22;720;47.738;7.998;2023-03-01T12:50:57;4.20;87.40
1453;DHT22;720;47.738;7.998;2023-03-01T12:53:34;4.30;88.00
1453;DHT22;720;47.738;7.998;2023-03-01T12:56:13;4.30;87.70
1453;DHT22;720;47.738;7.998;2023-03-01T13:01:55;4.40;87.60
1453;DHT22;720;47.738;7.998;2023-03-01T13:07:22;4.70;86.40
1453;DHT22;720;47.738;7.998;2023-03-01T13:15:33;5.20;84.90
1453;DHT22;720;47.738;7.998;2023-03-01T13:26:09;5.30;81.80
1453;DHT22;720;47.738;7.998;2023-03-01T13:33:47;5.50;82.70
1453;DHT22;720;47.738;7.998;2023-03-01T13:49:27;4.80;83.80
1453;DHT22;720;47.738;7.998;2023-03-01T13:51:54;4.70;84.80
1453;DHT22;720;47.738;7.998;2023-03-01T13:54:31;4.80;84.50
1453;DHT22;720;47.738;7.998;2023-03-01T13:57:00;4.70;84.40
1453;DHT22;720;47.738;7.998;2023-03-01T13:59:26;4.70;84.80
1453;DHT22;720;47.738;7.998;2023-03-01T14:01:57;4.90;84.10
1453;DHT22;720;47.738;7.998;2023-03-01T14:04:24;4.70;83.50
1453;DHT22;720;47.738;7.998;2023-03-01T14:09:43;4.60;84.80
1453;DHT22;720;47.738;7.998;2023-03-01T14:15:19;4.50;85.90
1453;DHT22;720;47.738;7.998;2023-03-01T14:20:25;4.40;85.10
1453;DHT22;720;47.738;7.998;2023-03-01T14:22:57;4.40;85.00
1453;DHT22;720;47.738;7.998;2023-03-01T14:25:35;4.30;85.40
1453;DHT22;720;47.738;7.998;2023-03-01T14:30:43;4.70;85.10
1453;DHT22;720;47.738;7.998;2023-03-01T14:38:28;4.90;84.20
1453;DHT22;720;47.738;7.998;2023-03-01T14:40:58;4.90;84.20
1453;DHT22;720;47.738;7.998;2023-03-01T14:43:24;4.80;84.70
1453;DHT22;720;47.738;7.998;2023-03-01T14:45:51;5.00;84.30
1453;DHT22;720;47.738;7.998;2023-03-01T14:48:18;4.90;84.30
1453;DHT22;720;47.738;7.998;2023-03-01T14:50:45;4.90;83.90
1453;DHT22;720;47.738;7.998;2023-03-01T14:53:26;4.90;84.10
1453;DHT22;720;47.738;7.998;2023-03-01T14:55:55;4.80;84.50
1453;DHT22;720;47.738;7.998;2023-03-01T14:58:24;4.90;86.60
1453;DHT22;720;47.738;7.998;2023-03-01T15:00:59;4.80;85.70
1453;DHT22;720;47.738;7.998;2023-03-01T15:03:26;5.00;85.90
1453;DHT22;720;47.738;7.998;2023-03-01T15:05:53;5.10;85.70
1453;DHT22;720;47.738;7.998;2023-03-01T15:08:23;5.10;86.20
1453;DHT22;720;47.738;7.998;2023-03-01T15:11:05;5.10;85.50
1453;DHT22;720;47.738;7.998;2023-03-01T15:13:42;5.10;84.60
1453;DHT22;720;47.738;7.998;2023-03-01T15:16:13;5.00;83.50
1453;DHT22;720;47.738;7.998;2023-03-01T15:19:01;4.50;84.40
1453;DHT22;720;47.738;7.998;2023-03-01T15:21:33;4.30;87.10
1453;DHT22;720;47.738;7.998;2023-03-01T15:26:59;4.50;86.90
1453;DHT22;720;47.738;7.998;2023-03-01T15:29:29;4.60;86.00
1453;DHT22;720;47.738;7.998;2023-03-01T15:32:03;4.50;87.20
1453;DHT22;720;47.738;7.998;2023-03-01T15:34:36;4.50;87.70
1453;DHT22;720;47.738;7.998;2023-03-01T15:37:05;4.30;87.90
1453;DHT22;720;47.738;7.998;2023-03-01T15:39:42;4.30;87.50
1453;DHT22;720;47.738;7.998;2023-03-01T15:42:17;4.20;87.70
1453;DHT22;720;47.738;7.998;2023-03-01T15:45:20;4.20;87.90
1453;DHT22;720;47.738;7.998;2023-03-01T15:47:57;4.20;88.20
1453;DHT22;720;47.738;7.998;2023-03-01T15:50:27;4.20;88.30
1453;DHT22;720;47.738;7.998;2023-03-01T15:52:55;4.30;87.90
1453;DHT22;720;47.738;7.998;2023-03-01T15:55:24;4.20;88.00
1453;DHT22;720;47.738;7.998;2023-03-01T15:57:58;3.90;88.70
1453;DHT22;720;47.738;7.998;2023-03-01T16:00:26;3.90;89.30
1453;DHT22;720;47.738;7.998;2023-03-01T16:02:51;3.90;89.60
1453;DHT22;720;47.738;7.998;2023-03-01T16:05:30;4.00;88.70
1453;DHT22;720;47.738;7.998;2023-03-01T16:07:56;4.10;88.40
1453;DHT22;720;47.738;7.998;2023-03-01T16:10:23;4.00;89.30
1453;DHT22;720;47.738;7.998;2023-03-01T16:12:49;3.80;89.40
1453;DHT22;720;47.738;7.998;2023-03-01T16:15:19;3.60;89.80
1453;DHT22;720;47.738;7.998;2023-03-01T16:17:45;3.50;90.10
1453;DHT22;720;47.738;7.998;2023-03-01T16:20:12;3.50;90.10
1453;DHT22;720;47.738;7.998;2023-03-01T16:22:37;3.40;90.40
1453;DHT22;720;47.738;7.998;2023-03-01T16:25:03;3.40;90.60
1453;DHT22;720;47.738;7.998;2023-03-01T16:27:29;3.20;90.80
1453;DHT22;720;47.738;7.998;2023-03-01T16:29:54;3.20;91.00
1453;DHT22;720;47.738;7.998;2023-03-01T16:32:20;3.20;90.80
1453;DHT22;720;47.738;7.998;2023-03-01T16:34:46;3.10;91.20
1453;DHT22;720;47.738;7.998;2023-03-01T16:37:15;3.00;91.60
1453;DHT22;720;47.738;7.998;2023-03-01T16:39:40;3.10;91.60
1453;DHT22;720;47.738;7.998;2023-03-01T16:42:06;3.00;91.50
1453;DHT22;720;47.738;7.998;2023-03-01T16:44:31;3.00;91.80
1453;DHT22;720;47.738;7.998;2023-03-01T16:46:57;3.00;91.80
1453;DHT22;720;47.738;7.998;2023-03-01T16:49:23;3.00;92.20
1453;DHT22;720;47.738;7.998;2023-03-01T16:51:48;3.00;91.90
1453;DHT22;720;47.738;7.998;2023-03-01T16:54:14;2.90;91.60
1453;DHT22;720;47.738;7.998;2023-03-01T16:56:39;2.80;91.60
1453;DHT22;720;47.738;7.998;2023-03-01T16:59:06;2.70;91.70
1453;DHT22;720;47.738;7.998;2023-03-01T17:01:31;2.70;92.10
1453;DHT22;720;47.738;7.998;2023-03-01T17:04:02;2.80;92.00
1453;DHT22;720;47.738;7.998;2023-03-01T17:06:28;2.70;91.90
1453;DHT22;720;47.738;7.998;2023-03-01T17:08:54;2.60;91.80
1453;DHT22;720;47.738;7.998;2023-03-01T17:11:20;2.60;91.90
1453;DHT22;720;47.738;7.998;2023-03-01T17:13:46;2.60;92.10
1453;DHT22;720;47.738;7.998;2023-03-01T17:16:15;2.70;92.10
1453;DHT22;720;47.738;7.998;2023-03-01T17:18:41;2.60;92.10
1453;DHT22;720;47.738;7.998;2023-03-01T17:21:08;2.60;92.10
1453;DHT22;720;47.738;7.998;2023-03-01T17:23:36;2.60;92.30
1453;DHT22;720;47.738;7.998;2023-03-01T17:26:02;2.60;92.40
1453;DHT22;720;47.738;7.998;2023-03-01T17:28:30;2.50;92.20
1453;DHT22;720;47.738;7.998;2023-03-01T17:30:56;2.50;92.50
1453;DHT22;720;47.738;7.998;2023-03-01T17:33:22;2.40;92.50
1453;DHT22;720;47.738;7.998;2023-03-01T17:35:49;2.30;92.80
1453;DHT22;720;47.738;7.998;2023-03-01T17:38:15;2.20;93.30
1453;DHT22;720;47.738;7.998;2023-03-01T17:40:42;2.20;93.40
1453;DHT22;720;47.738;7.998;2023-03-01T17:43:08;2.20;93.50
1453;DHT22;720;47.738;7.998;2023-03-01T17:45:37;2.20;93.50
1453;DHT22;720;47.738;7.998;2023-03-01T17:48:05;2.20;93.90
1453;DHT22;720;47.738;7.998;2023-03-01T17:50:31;2.30;93.40
1453;DHT22;720;47.738;7.998;2023-03-01T17:52:57;2.30;93.40
1453;DHT22;720;47.738;7.998;2023-03-01T17:55:23;2.30;93.50
1453;DHT22;720;47.738;7.998;2023-03-01T17:57:49;2.30;93.40
1453;DHT22;720;47.738;7.998;2023-03-01T18:00:16;2.20;93.60
1453;DHT22;720;47.738;7.998;2023-03-01T18:02:43;2.20;93.80
1453;DHT22;720;47.738;7.998;2023-03-01T18:05:09;2.30;94.00
1453;DHT22;720;47.738;7.998;2023-03-01T18:07:35;2.30;94.10
1453;DHT22;720;47.738;7.998;2023-03-01T18:10:02;2.40;94.00
1453;DHT22;720;47.738;7.998;2023-03-01T18:12:30;2.40;94.00
1453;DHT22;720;47.738;7.998;2023-03-01T18:14:55;2.50;94.20
1453;DHT22;720;47.738;7.998;2023-03-01T18:17:24;2.60;94.30
1453;DHT22;720;47.738;7.998;2023-03-01T18:19:50;2.70;94.20
1453;DHT22;720;47.738;7.998;2023-03-01T18:22:16;2.70;93.70
1453;DHT22;720;47.738;7.998;2023-03-01T18:24:42;2.70;93.60
1453;DHT22;720;47.738;7.998;2023-03-01T18:27:08;2.70;93.70
1453;DHT22;720;47.738;7.998;2023-03-01T18:29:35;2.70;93.80
1453;DHT22;720;47.738;7.998;2023-03-01T18:32:02;2.80;93.80
1453;DHT22;720;47.738;7.998;2023-03-01T18:34:28;2.80;93.70
1453;DHT22;720;47.738;7.998;2023-03-01T18:36:53;2.80;93.80
1453;DHT22;720;47.738;7.998;2023-03-01T18:39:21;2.70;94.00
1453;DHT22;720;47.738;7.998;2023-03-01T18:41:47;2.60;94.10
1453;DHT22;720;47.738;7.998;2023-03-01T18:44:13;2.70;94.10
1453;DHT22;720;47.738;7.998;2023-03-01T18:46:38;2.70;94.00
1453;DHT22;720;47.738;7.998;2023-03-01T18:49:06;2.70;93.80
1453;DHT22;720;47.738;7.998;2023-03-01T18:51:32;2.70;93.90
1453;DHT22;720;47.738;7.998;2023-03-01T18:54:00;2.70;94.00
1453;DHT22;720;47.738;7.998;2023-03-01T18:56:29;2.70;93.90